METAR Data
IDs: Format: Raw Decoded Include TAF

Data at: 2216 UTC 01 Dec 2021

KLAX 012153Z 24009KT 1/8SM R25L/1600VP6000FT FG VV002 14/13 A3005 RMK AO2 SLP173 VIS 1/16V3/4 T01390128